createdAt,value
2022-08-19T00:01:57.462Z,60.80
2022-08-19T00:04:31.613Z,60.70
2022-08-19T00:07:00.115Z,60.60
2022-08-19T00:09:27.621Z,60.40
2022-08-19T00:11:56.503Z,60.50
2022-08-19T00:14:25.561Z,60.70
2022-08-19T00:16:55.375Z,60.90
2022-08-19T00:19:23.970Z,60.80
2022-08-19T00:21:51.788Z,60.90
2022-08-19T00:24:18.798Z,60.80
2022-08-19T00:26:46.729Z,60.70
2022-08-19T00:29:16.691Z,60.90
2022-08-19T00:31:44.047Z,61.00
2022-08-19T00:34:13.006Z,61.10
2022-08-19T00:36:40.908Z,61.00
2022-08-19T00:39:08.087Z,61.00
2022-08-19T00:41:35.168Z,61.10
2022-08-19T00:44:11.592Z,61.20
2022-08-19T00:46:42.554Z,61.20
2022-08-19T00:49:33.766Z,61.20
2022-08-19T00:52:23.570Z,61.40
2022-08-19T00:54:52.883Z,61.70
2022-08-19T00:57:27.554Z,61.20
2022-08-19T01:00:01.568Z,61.20
2022-08-19T01:02:31.303Z,61.00
2022-08-19T01:04:58.666Z,61.40
2022-08-19T01:07:25.663Z,61.60
2022-08-19T01:09:52.901Z,61.50
2022-08-19T01:12:20.287Z,61.40
2022-08-19T01:14:48.725Z,61.40
2022-08-19T01:17:17.198Z,61.70
2022-08-19T01:19:47.646Z,61.60
2022-08-19T01:22:46.007Z,61.40
2022-08-19T01:25:15.846Z,61.20
2022-08-19T01:27:46.802Z,61.00
2022-08-19T01:30:24.398Z,61.10
2022-08-19T01:32:53.530Z,61.40
2022-08-19T01:35:22.033Z,61.80
2022-08-19T01:37:52.889Z,61.80
2022-08-19T01:40:21.870Z,61.60
2022-08-19T01:42:50.845Z,61.60
2022-08-19T01:45:20.106Z,61.50
2022-08-19T01:47:55.598Z,61.80
2022-08-19T01:50:34.242Z,61.60
2022-08-19T01:53:06.632Z,61.80
2022-08-19T01:55:40.528Z,62.00
2022-08-19T01:58:15.646Z,62.20
2022-08-19T02:00:43.716Z,62.30
2022-08-19T02:03:12.292Z,62.20
2022-08-19T02:05:40.955Z,61.80
2022-08-19T02:08:08.483Z,62.00
2022-08-19T02:10:40.608Z,61.90
2022-08-19T02:13:07.942Z,61.80
2022-08-19T02:15:34.826Z,61.60
2022-08-19T02:18:01.680Z,61.70
2022-08-19T02:20:28.685Z,61.70
2022-08-19T02:22:55.533Z,61.40
2022-08-19T02:25:22.395Z,61.60
2022-08-19T02:27:49.240Z,61.90
2022-08-19T02:30:19.949Z,61.90
2022-08-19T02:32:47.389Z,61.90
2022-08-19T02:35:15.498Z,62.10
2022-08-19T02:38:02.435Z,62.20
2022-08-19T02:40:33.020Z,62.20
2022-08-19T02:42:59.889Z,62.20
2022-08-19T02:45:26.790Z,62.20
2022-08-19T02:47:54.060Z,62.20
2022-08-19T02:50:21.031Z,62.20
2022-08-19T02:52:47.898Z,62.20
2022-08-19T02:55:15.034Z,62.40
2022-08-19T02:57:42.898Z,62.30
2022-08-19T03:00:13.504Z,62.50
2022-08-19T03:02:41.245Z,62.60
2022-08-19T03:05:10.471Z,62.70
2022-08-19T03:07:38.146Z,62.70
2022-08-19T03:10:05.962Z,62.50
2022-08-19T03:12:37.569Z,62.40
2022-08-19T03:15:08.658Z,62.60
2022-08-19T03:17:36.577Z,62.70
2022-08-19T03:20:05.030Z,63.00
2022-08-19T03:22:31.941Z,63.20
2022-08-19T03:25:00.077Z,63.20
2022-08-19T03:27:31.210Z,62.90
2022-08-19T03:30:01.346Z,63.30
2022-08-19T03:32:33.060Z,63.40
2022-08-19T03:35:00.834Z,62.90
2022-08-19T03:37:27.738Z,63.10
2022-08-19T03:39:54.631Z,63.00
2022-08-19T03:42:38.914Z,62.70
2022-08-19T03:45:09.004Z,62.70
2022-08-19T03:47:35.870Z,63.00
2022-08-19T03:50:03.280Z,63.30
2022-08-19T03:52:30.157Z,63.60
2022-08-19T03:54:57.154Z,63.70
2022-08-19T03:57:27.811Z,63.90
2022-08-19T04:00:13.164Z,64.10
2022-08-19T04:02:42.966Z,64.30
2022-08-19T04:05:29.355Z,64.50
2022-08-19T04:07:59.774Z,64.30
2022-08-19T04:10:26.659Z,64.10
2022-08-19T04:12:53.732Z,63.80
2022-08-19T04:15:21.786Z,63.60
2022-08-19T04:17:48.704Z,63.20
2022-08-19T04:20:15.548Z,62.90
2022-08-19T04:22:42.645Z,63.10
2022-08-19T04:25:10.027Z,63.70
2022-08-19T04:27:36.856Z,63.70
2022-08-19T04:30:04.873Z,63.60
2022-08-19T04:32:32.915Z,63.40
2022-08-19T04:35:02.640Z,62.90
2022-08-19T04:37:44.642Z,62.70
2022-08-19T04:40:30.250Z,62.60
2022-08-19T04:42:57.378Z,62.80
2022-08-19T04:45:24.333Z,62.70
2022-08-19T04:47:58.843Z,62.40
2022-08-19T04:50:44.774Z,62.40
2022-08-19T04:53:12.092Z,62.30
2022-08-19T04:55:43.420Z,62.80
2022-08-19T04:58:10.641Z,63.30
2022-08-19T05:00:40.723Z,63.40
2022-08-19T05:03:08.225Z,63.40
2022-08-19T05:05:44.399Z,63.30
2022-08-19T05:08:15.157Z,63.70
2022-08-19T05:10:42.511Z,64.10
2022-08-19T05:13:10.850Z,64.30
2022-08-19T05:15:37.803Z,64.80
2022-08-19T05:18:23.121Z,65.20
2022-08-19T05:21:08.587Z,65.20
2022-08-19T05:23:35.506Z,65.00
2022-08-19T05:26:02.404Z,64.70
2022-08-19T05:28:29.308Z,64.60
2022-08-19T05:30:58.350Z,64.30
2022-08-19T05:33:25.480Z,64.40
2022-08-19T05:35:52.788Z,64.60
2022-08-19T05:38:20.270Z,64.70
2022-08-19T05:40:50.328Z,65.10
2022-08-19T05:43:17.291Z,65.10
2022-08-19T05:45:45.003Z,65.20
2022-08-19T05:48:12.842Z,65.20
2022-08-19T05:50:41.871Z,65.50
2022-08-19T05:53:09.900Z,65.60
2022-08-19T05:55:39.094Z,65.80
2022-08-19T05:58:08.543Z,66.10
2022-08-19T06:00:37.164Z,66.40
2022-08-19T06:03:09.721Z,66.40
2022-08-19T06:05:46.813Z,66.20
2022-08-19T06:08:19.338Z,65.80
2022-08-19T06:10:46.269Z,65.70
2022-08-19T06:13:13.196Z,65.50
2022-08-19T06:15:40.074Z,65.40
2022-08-19T06:18:06.944Z,65.50
2022-08-19T06:20:54.472Z,65.20
2022-08-19T06:23:21.160Z,65.10
2022-08-19T06:25:51.323Z,64.90
2022-08-19T06:28:18.470Z,65.50
2022-08-19T06:30:45.839Z,65.10
2022-08-19T06:33:12.698Z,65.00
2022-08-19T06:35:41.155Z,64.80
2022-08-19T06:38:08.249Z,64.40
2022-08-19T06:40:36.653Z,64.70
2022-08-19T06:43:03.669Z,64.60
2022-08-19T06:45:34.984Z,64.70
2022-08-19T06:48:03.461Z,65.10
2022-08-19T06:50:30.381Z,64.80
2022-08-19T06:52:57.253Z,64.60
2022-08-19T06:55:30.213Z,64.40
2022-08-19T06:58:04.633Z,64.50
2022-08-19T07:03:07.685Z,64.70
2022-08-19T07:05:45.832Z,64.60
2022-08-19T07:08:14.142Z,64.50
2022-08-19T07:10:44.701Z,64.70
2022-08-19T07:13:12.484Z,64.60
2022-08-19T07:15:39.822Z,64.40
2022-08-19T07:18:07.003Z,64.10
2022-08-19T07:20:40.037Z,64.10
2022-08-19T07:23:09.370Z,63.80
2022-08-19T07:25:39.495Z,63.60
2022-08-19T07:28:24.020Z,64.20
2022-08-19T07:30:52.107Z,63.10
2022-08-19T07:33:20.268Z,61.90
2022-08-19T07:35:47.181Z,62.10
2022-08-19T07:38:15.772Z,61.30
2022-08-19T07:40:44.005Z,61.00
2022-08-19T07:43:14.039Z,61.70
2022-08-19T07:45:44.219Z,61.40
2022-08-19T07:48:11.459Z,60.00
2022-08-19T07:50:38.300Z,57.70
2022-08-19T07:53:05.262Z,56.90
2022-08-19T07:55:40.051Z,57.10
2022-08-19T07:58:08.472Z,57.10
2022-08-19T08:00:36.296Z,56.70
2022-08-19T08:03:03.299Z,56.40
2022-08-19T08:05:48.657Z,56.40
2022-08-19T08:08:34.119Z,56.90
2022-08-19T08:11:01.624Z,57.00
2022-08-19T08:13:29.166Z,57.20
2022-08-19T08:15:57.241Z,57.50
2022-08-19T08:18:27.977Z,58.10
2022-08-19T08:20:58.447Z,58.00
2022-08-19T08:23:26.875Z,58.40
2022-08-19T08:25:57.935Z,58.00
2022-08-19T08:28:26.363Z,58.30
2022-08-19T08:30:57.937Z,58.70
2022-08-19T08:33:32.885Z,59.40
2022-08-19T08:36:00.294Z,58.10
2022-08-19T08:38:27.252Z,56.90
2022-08-19T08:41:07.527Z,56.40
2022-08-19T08:43:38.100Z,55.30
2022-08-19T08:46:31.001Z,53.70
2022-08-19T08:49:21.393Z,51.50
2022-08-19T08:51:59.525Z,49.90
2022-08-19T08:54:39.599Z,49.00
2022-08-19T08:57:15.311Z,47.30
2022-08-19T08:59:44.351Z,47.90
2022-08-19T09:02:11.191Z,48.90
2022-08-19T09:04:38.947Z,48.00
2022-08-19T09:07:18.137Z,47.20
2022-08-19T09:10:08.642Z,47.00
2022-08-19T09:12:59.295Z,46.20
2022-08-19T09:15:39.459Z,46.40
2022-08-19T09:18:07.400Z,46.80
2022-08-19T09:20:34.510Z,47.30
2022-08-19T09:23:01.444Z,47.90
2022-08-19T09:25:29.681Z,48.60
2022-08-19T09:28:05.628Z,48.90
2022-08-19T09:30:40.331Z,49.60
2022-08-19T09:33:07.962Z,49.80
2022-08-19T09:35:50.194Z,50.70
2022-08-19T09:38:21.688Z,51.10
2022-08-19T09:40:50.067Z,52.30
2022-08-19T09:43:33.163Z,53.10
2022-08-19T09:46:01.931Z,53.60
2022-08-19T09:48:28.931Z,52.80
2022-08-19T09:50:55.818Z,53.00
2022-08-19T09:53:23.503Z,53.10
2022-08-19T09:55:53.047Z,53.40
2022-08-19T09:58:24.683Z,54.50
2022-08-19T10:00:54.691Z,53.80
2022-08-19T10:03:21.844Z,53.90
2022-08-19T10:05:55.271Z,54.40
2022-08-19T10:08:28.837Z,54.70
2022-08-19T10:10:56.889Z,55.00
2022-08-19T10:13:29.709Z,54.90
2022-08-19T10:16:04.201Z,56.40
2022-08-19T10:18:31.233Z,55.90
2022-08-19T10:21:11.569Z,56.20
2022-08-19T10:23:41.416Z,54.40
2022-08-19T10:26:08.481Z,54.40
2022-08-19T10:28:39.872Z,53.50
2022-08-19T10:31:12.871Z,52.30
2022-08-19T10:33:53.563Z,51.30
2022-08-19T10:36:23.551Z,51.30
2022-08-19T10:38:56.699Z,50.60
2022-08-19T10:41:35.872Z,49.50
2022-08-19T10:44:06.111Z,49.70
2022-08-19T10:46:35.984Z,49.00
2022-08-19T10:49:06.044Z,49.10
2022-08-19T10:51:52.073Z,50.20
2022-08-19T10:54:31.116Z,50.90
2022-08-19T10:56:59.039Z,50.00
2022-08-19T10:59:33.861Z,49.90
2022-08-19T11:02:05.324Z,50.90
2022-08-19T11:04:33.498Z,50.20
2022-08-19T11:07:00.333Z,50.10
2022-08-19T11:09:33.885Z,49.10
2022-08-19T11:12:02.774Z,49.10
2022-08-19T11:14:34.412Z,50.60
2022-08-19T11:17:01.964Z,50.10
2022-08-19T11:19:28.917Z,51.60
2022-08-19T11:21:57.603Z,49.80
2022-08-19T11:24:28.417Z,48.80
2022-08-19T11:27:01.024Z,49.10
2022-08-19T11:29:29.068Z,49.50
2022-08-19T11:31:56.021Z,48.60
2022-08-19T11:34:26.217Z,47.50
2022-08-19T11:36:58.886Z,47.10
2022-08-19T11:39:28.308Z,47.50
2022-08-19T11:41:55.428Z,47.60
2022-08-19T11:44:22.352Z,47.40
2022-08-19T11:46:49.353Z,47.50
2022-08-19T11:49:19.907Z,48.00
2022-08-19T11:51:48.293Z,48.90
2022-08-19T11:54:17.371Z,48.10
2022-08-19T11:56:45.229Z,48.00
2022-08-19T11:59:14.930Z,48.10
2022-08-19T12:01:43.603Z,48.60
2022-08-19T12:04:11.646Z,49.10
2022-08-19T12:06:41.163Z,50.40
2022-08-19T12:09:12.033Z,51.00
2022-08-19T12:11:40.414Z,51.30
2022-08-19T12:14:10.119Z,50.90
2022-08-19T12:16:42.720Z,50.20
2022-08-19T12:19:16.614Z,51.80
2022-08-19T12:21:49.807Z,49.80
2022-08-19T12:24:16.724Z,50.60
2022-08-19T12:26:53.079Z,51.20
2022-08-19T12:29:23.625Z,50.60
2022-08-19T12:31:51.705Z,50.00
2022-08-19T12:34:20.740Z,50.00
2022-08-19T12:36:50.151Z,49.30
2022-08-19T12:39:17.169Z,49.30
2022-08-19T12:41:51.600Z,49.10
2022-08-19T12:44:29.157Z,49.70
2022-08-19T12:46:57.622Z,49.70
2022-08-19T12:49:53.978Z,49.30
2022-08-19T12:52:16.173Z,49.10
2022-08-19T12:54:47.249Z,49.30
2022-08-19T12:57:14.121Z,49.60
2022-08-19T12:59:42.238Z,47.90
2022-08-19T13:02:09.939Z,47.50
2022-08-19T13:04:38.849Z,48.10
2022-08-19T13:07:05.794Z,47.70
2022-08-19T13:09:43.517Z,48.40
2022-08-19T13:12:14.019Z,49.50
2022-08-19T13:14:41.830Z,51.40
2022-08-19T13:17:09.542Z,52.60
2022-08-19T13:19:38.277Z,53.00
2022-08-19T13:22:12.476Z,53.50
2022-08-19T13:24:46.809Z,53.10
2022-08-19T13:27:14.977Z,53.30
2022-08-19T13:30:01.619Z,53.60
2022-08-19T13:32:48.857Z,53.70
2022-08-19T13:35:18.107Z,53.90
2022-08-19T13:37:46.338Z,55.10
2022-08-19T13:40:20.027Z,56.00
2022-08-19T13:42:49.991Z,56.60
2022-08-19T13:45:20.560Z,57.00
2022-08-19T13:47:48.909Z,58.20
2022-08-19T13:50:20.694Z,58.70
2022-08-19T13:52:48.526Z,57.90
2022-08-19T13:55:16.560Z,57.70
2022-08-19T13:57:54.034Z,58.80
2022-08-19T14:00:23.127Z,59.80
2022-08-19T14:02:52.999Z,60.00
2022-08-19T14:05:21.767Z,60.50
2022-08-19T14:07:49.247Z,61.00
2022-08-19T14:10:17.622Z,61.50
2022-08-19T14:12:44.581Z,61.90
2022-08-19T14:15:12.565Z,62.00
2022-08-19T14:17:41.415Z,62.20
2022-08-19T14:20:11.412Z,62.50
2022-08-19T14:22:46.785Z,62.70
2022-08-19T14:25:17.774Z,62.70
2022-08-19T14:27:45.399Z,62.20
2022-08-19T14:30:16.107Z,62.70
2022-08-19T14:32:44.398Z,62.70
2022-08-19T14:35:13.559Z,62.80
2022-08-19T14:37:45.726Z,63.30
2022-08-19T14:40:15.239Z,63.30
2022-08-19T14:42:42.894Z,63.70
2022-08-19T14:45:11.428Z,63.10
2022-08-19T14:47:39.850Z,62.60
2022-08-19T14:50:18.066Z,62.20
2022-08-19T14:52:49.424Z,62.20
2022-08-19T14:55:18.107Z,62.80
2022-08-19T14:57:45.826Z,62.40
2022-08-19T15:00:14.335Z,62.90
2022-08-19T15:02:42.734Z,62.60
2022-08-19T15:05:09.950Z,62.30
2022-08-19T15:07:37.707Z,63.10
2022-08-19T15:10:07.867Z,62.90
2022-08-19T15:12:43.248Z,63.90
2022-08-19T15:15:15.564Z,62.90
2022-08-19T15:17:46.469Z,62.60
2022-08-19T15:20:19.894Z,62.00
2022-08-19T15:22:47.193Z,61.90
2022-08-19T15:25:17.883Z,62.20
2022-08-19T15:27:44.756Z,61.80
2022-08-19T15:30:12.633Z,60.90
2022-08-19T15:32:40.130Z,61.50
2022-08-19T15:35:08.342Z,61.00
2022-08-19T15:37:37.258Z,60.50
2022-08-19T15:40:07.537Z,61.30
2022-08-19T15:42:37.954Z,60.90
2022-08-19T15:45:07.146Z,60.60
2022-08-19T15:47:34.605Z,60.90
2022-08-19T15:50:13.640Z,61.80
2022-08-19T15:52:53.791Z,61.40
2022-08-19T15:55:32.764Z,61.60
2022-08-19T15:58:37.461Z,60.50
2022-08-19T16:01:27.391Z,59.40
2022-08-19T16:04:16.033Z,59.70
2022-08-19T16:06:50.120Z,60.00
2022-08-19T16:09:22.110Z,59.60
2022-08-19T16:11:56.987Z,59.70
2022-08-19T16:14:26.506Z,59.90
2022-08-19T16:16:56.806Z,59.80
2022-08-19T16:19:25.022Z,60.40
2022-08-19T16:21:54.421Z,60.20
2022-08-19T16:24:23.769Z,60.40
2022-08-19T16:26:50.694Z,61.00
2022-08-19T16:29:33.379Z,60.50
2022-08-19T16:32:09.913Z,61.20
2022-08-19T16:34:38.409Z,61.40
2022-08-19T16:37:05.549Z,61.30
2022-08-19T16:39:32.716Z,61.60
2022-08-19T16:41:59.732Z,61.90
2022-08-19T16:44:29.649Z,61.90
2022-08-19T16:46:59.500Z,62.90
2022-08-19T16:49:53.656Z,62.10
2022-08-19T16:52:16.589Z,62.10
2022-08-19T16:54:43.977Z,61.70
2022-08-19T16:57:12.863Z,61.50
2022-08-19T16:59:43.154Z,61.70
2022-08-19T17:02:18.139Z,60.60
2022-08-19T17:04:57.301Z,61.00
2022-08-19T17:07:27.836Z,60.80
2022-08-19T17:09:55.488Z,60.80
2022-08-19T17:12:30.253Z,60.90
2022-08-19T17:15:03.670Z,61.00
2022-08-19T17:17:31.953Z,60.90
2022-08-19T17:20:00.468Z,61.10
2022-08-19T17:22:27.496Z,61.10
2022-08-19T17:24:56.372Z,60.80
2022-08-19T17:27:25.527Z,61.20
2022-08-19T17:29:53.014Z,61.10
2022-08-19T17:32:25.162Z,61.40
2022-08-19T17:34:54.197Z,61.20
2022-08-19T17:37:21.204Z,61.30
2022-08-19T17:39:48.113Z,61.20
2022-08-19T17:42:15.025Z,60.60
2022-08-19T17:44:42.142Z,60.90
2022-08-19T17:47:13.040Z,60.90
2022-08-19T17:49:40.022Z,60.90
2022-08-19T17:52:09.899Z,60.50
2022-08-19T17:54:37.366Z,60.10
2022-08-19T17:57:04.459Z,60.20
2022-08-19T17:59:31.451Z,60.50
2022-08-19T18:02:00.060Z,60.80
2022-08-19T18:04:27.161Z,60.80
2022-08-19T18:06:55.601Z,60.60
2022-08-19T18:09:41.266Z,61.00
2022-08-19T18:12:11.589Z,61.00
2022-08-19T18:14:40.134Z,61.40
2022-08-19T18:17:10.376Z,61.00
2022-08-19T18:19:42.144Z,60.90
2022-08-19T18:22:12.267Z,61.30
2022-08-19T18:24:41.570Z,61.30
2022-08-19T18:27:08.770Z,61.30
2022-08-19T18:29:38.238Z,61.60
2022-08-19T18:32:09.147Z,61.80
2022-08-19T18:34:36.784Z,61.80
2022-08-19T18:37:04.158Z,61.60
2022-08-19T18:39:49.951Z,61.70
2022-08-19T18:42:35.945Z,61.70
2022-08-19T18:45:22.319Z,61.60
2022-08-19T18:48:07.731Z,61.70
2022-08-19T18:50:53.311Z,61.50
2022-08-19T18:53:20.388Z,61.60
2022-08-19T18:55:49.478Z,61.80
2022-08-19T18:58:16.439Z,61.90
2022-08-19T19:00:44.044Z,61.80
2022-08-19T19:03:11.664Z,62.00
2022-08-19T19:05:39.918Z,62.00
2022-08-19T19:08:07.899Z,61.90
2022-08-19T19:10:36.271Z,61.90
2022-08-19T19:13:03.539Z,62.00
2022-08-19T19:15:30.482Z,62.30
2022-08-19T19:17:59.219Z,62.30
2022-08-19T19:20:35.067Z,62.20
2022-08-19T19:23:03.756Z,62.20
2022-08-19T19:25:50.659Z,62.30
2022-08-19T19:28:28.440Z,62.30
2022-08-19T19:30:59.871Z,62.40
2022-08-19T19:33:27.912Z,62.30
2022-08-19T19:35:55.081Z,62.30
2022-08-19T19:38:22.084Z,62.40
2022-08-19T19:40:48.971Z,62.30
2022-08-19T19:43:18.337Z,62.40
2022-08-19T19:45:48.252Z,62.70
2022-08-19T19:48:15.524Z,62.60
2022-08-19T19:50:44.025Z,62.50
2022-08-19T19:53:11.416Z,63.00
2022-08-19T19:55:41.084Z,63.20
2022-08-19T19:58:08.335Z,62.90
2022-08-19T20:00:35.818Z,63.00
2022-08-19T20:03:02.877Z,62.60
2022-08-19T20:05:29.815Z,63.40
2022-08-19T20:08:15.443Z,62.20
2022-08-19T20:10:43.767Z,62.50
2022-08-19T20:13:15.486Z,62.40
2022-08-19T20:15:45.643Z,62.40
2022-08-19T20:18:14.516Z,62.50
2022-08-19T20:20:42.118Z,62.60
2022-08-19T20:23:09.144Z,62.70
2022-08-19T20:25:38.067Z,62.80
2022-08-19T20:28:05.747Z,62.50
2022-08-19T20:30:33.312Z,62.40
2022-08-19T20:33:01.958Z,62.60
2022-08-19T20:35:28.921Z,63.00
2022-08-19T20:37:58.354Z,62.80
2022-08-19T20:40:27.018Z,62.90
2022-08-19T20:42:54.894Z,63.20
2022-08-19T20:45:32.784Z,63.30
2022-08-19T20:48:03.073Z,62.90
2022-08-19T20:50:31.943Z,62.70
2022-08-19T20:52:59.175Z,62.80
2022-08-19T20:55:27.317Z,62.60
2022-08-19T20:57:54.885Z,62.70
2022-08-19T21:00:22.047Z,62.80
2022-08-19T21:02:48.911Z,62.70
2022-08-19T21:05:15.829Z,62.70
2022-08-19T21:07:42.721Z,63.10
2022-08-19T21:10:09.610Z,63.00
2022-08-19T21:12:36.624Z,62.70
2022-08-19T21:15:05.165Z,62.90
2022-08-19T21:17:32.028Z,63.30
2022-08-19T21:19:59.158Z,62.90
2022-08-19T21:22:26.115Z,63.30
2022-08-19T21:24:52.974Z,63.30
2022-08-19T21:27:20.097Z,63.20
2022-08-19T21:29:47.068Z,62.90
2022-08-19T21:32:14.648Z,63.30
2022-08-19T21:34:43.701Z,63.50
2022-08-19T21:37:25.797Z,63.60
2022-08-19T21:39:54.547Z,63.30
2022-08-19T21:42:23.153Z,62.90
2022-08-19T21:44:50.226Z,62.80
2022-08-19T21:47:17.092Z,63.20
2022-08-19T21:49:44.012Z,63.30
2022-08-19T21:52:10.867Z,63.20
2022-08-19T21:54:38.717Z,63.10
2022-08-19T21:57:09.958Z,62.70
2022-08-19T21:59:41.280Z,62.90
2022-08-19T22:02:19.924Z,62.90
2022-08-19T22:04:48.965Z,63.50
2022-08-19T22:07:15.978Z,63.30
2022-08-19T22:09:45.150Z,63.50
2022-08-19T22:12:24.129Z,63.60
2022-08-19T22:14:52.455Z,63.80
2022-08-19T22:17:19.817Z,63.70
2022-08-19T22:19:47.027Z,63.80
2022-08-19T22:22:24.180Z,63.60
2022-08-19T22:24:52.298Z,63.60
2022-08-19T22:27:20.165Z,63.80
2022-08-19T22:29:47.530Z,63.80
2022-08-19T22:32:27.052Z,63.60
2022-08-19T22:34:58.287Z,63.70
2022-08-19T22:37:25.882Z,63.80
2022-08-19T22:39:53.170Z,64.00
2022-08-19T22:42:21.400Z,63.90
2022-08-19T22:44:48.977Z,63.70
2022-08-19T22:47:16.086Z,63.50
2022-08-19T22:49:43.728Z,63.70
2022-08-19T22:52:20.032Z,63.70
2022-08-19T22:54:52.498Z,63.70
2022-08-19T22:57:20.902Z,63.60
2022-08-19T22:59:50.086Z,63.80
2022-08-19T23:02:27.276Z,64.00
2022-08-19T23:04:54.608Z,64.10
2022-08-19T23:07:23.824Z,64.00
2022-08-19T23:09:51.016Z,64.00
2022-08-19T23:12:30.741Z,64.00
2022-08-19T23:15:09.821Z,64.30
2022-08-19T23:17:38.114Z,64.00
2022-08-19T23:20:07.983Z,64.10
2022-08-19T23:22:38.135Z,64.20
2022-08-19T23:25:07.735Z,64.20
2022-08-19T23:27:53.234Z,64.20
2022-08-19T23:30:26.539Z,64.20
2022-08-19T23:32:59.058Z,65.10
2022-08-19T23:35:27.297Z,65.30
2022-08-19T23:37:54.298Z,64.30
2022-08-19T23:40:21.985Z,64.20
2022-08-19T23:42:50.765Z,64.50
2022-08-19T23:45:22.930Z,64.80
2022-08-19T23:47:51.064Z,64.90
2022-08-19T23:50:21.263Z,65.20
2022-08-19T23:52:54.275Z,65.10
2022-08-19T23:55:24.755Z,65.40
2022-08-19T23:57:51.854Z,65.30
